sensor_id;sensor_type;location;lat;lon;timestamp;pressure;altitude;pressure_sealevel;temperature;humidity
57038;BME280;59942;49.304;8.256;2022-08-21T19:13:09;100093.09;;;27.53;31.19
57038;BME280;59942;49.304;8.256;2022-08-21T19:15:49;100091.81;;;27.79;30.74
57038;BME280;59942;49.304;8.256;2022-08-21T19:18:25;100087.59;;;27.70;31.30
57038;BME280;59942;49.304;8.256;2022-08-21T19:20:54;100070.19;;;27.14;32.76
57038;BME280;59942;49.304;8.256;2022-08-21T19:23:24;100082.03;;;26.74;33.40
57038;BME280;59942;49.304;8.256;2022-08-21T19:25:57;100091.72;;;27.04;32.27
57038;BME280;59942;49.304;8.256;2022-08-21T19:28:31;100092.94;;;27.40;31.81
57038;BME280;59942;49.304;8.256;2022-08-21T19:31:15;100097.50;;;27.61;31.36
57038;BME280;59942;49.304;8.256;2022-08-21T19:33:54;100083.53;;;27.44;31.27
57038;BME280;59942;49.304;8.256;2022-08-21T19:36:28;100072.63;;;27.39;31.16
57038;BME280;59942;49.304;8.256;2022-08-21T19:38:55;100097.41;;;27.69;31.21
57038;BME280;59942;49.304;8.256;2022-08-21T19:41:29;100092.28;;;27.00;32.26
57038;BME280;59942;49.304;8.256;2022-08-21T19:44:03;100088.66;;;26.46;33.13
57038;BME280;59942;49.304;8.256;2022-08-21T19:46:37;100106.19;;;26.32;33.58
57038;BME280;59942;49.304;8.256;2022-08-21T19:49:15;100102.47;;;26.42;33.17
57038;BME280;59942;49.304;8.256;2022-08-21T19:51:56;100095.13;;;26.52;32.86
57038;BME280;59942;49.304;8.256;2022-08-21T19:54:40;100085.13;;;26.54;32.61
57038;BME280;59942;49.304;8.256;2022-08-21T19:57:13;100090.81;;;26.74;32.31
57038;BME280;59942;49.304;8.256;2022-08-21T19:59:45;100090.66;;;26.13;33.54
57038;BME280;59942;49.304;8.256;2022-08-21T20:02:14;100096.56;;;25.92;34.40
57038;BME280;59942;49.304;8.256;2022-08-21T20:04:45;100092.06;;;26.00;34.06
57038;BME280;59942;49.304;8.256;2022-08-21T20:07:20;100091.69;;;26.12;33.87
57038;BME280;59942;49.304;8.256;2022-08-21T20:09:53;100093.88;;;26.31;33.30
57038;BME280;59942;49.304;8.256;2022-08-21T20:12:21;100096.66;;;26.15;33.72
57038;BME280;59942;49.304;8.256;2022-08-21T20:14:49;100078.25;;;26.05;34.10
57038;BME280;59942;49.304;8.256;2022-08-21T20:17:18;100095.13;;;26.21;33.93
57038;BME280;59942;49.304;8.256;2022-08-21T20:19:47;100088.00;;;26.13;33.54
57038;BME280;59942;49.304;8.256;2022-08-21T20:22:20;100094.53;;;26.10;33.78
57038;BME280;59942;49.304;8.256;2022-08-21T20:24:49;100096.81;;;26.13;33.50
57038;BME280;59942;49.304;8.256;2022-08-21T20:27:21;100092.69;;;26.11;33.53
57038;BME280;59942;49.304;8.256;2022-08-21T20:29:49;100078.78;;;26.00;33.48
57038;BME280;59942;49.304;8.256;2022-08-21T20:32:16;100086.22;;;26.05;33.79
57038;BME280;59942;49.304;8.256;2022-08-21T20:34:44;100096.38;;;26.02;33.89
57038;BME280;59942;49.304;8.256;2022-08-21T20:37:17;100099.34;;;25.98;33.58
57038;BME280;59942;49.304;8.256;2022-08-21T20:40:04;100094.03;;;25.98;34.07
57038;BME280;59942;49.304;8.256;2022-08-21T20:42:38;100089.28;;;25.86;34.63
57038;BME280;59942;49.304;8.256;2022-08-21T20:45:11;100095.81;;;25.66;34.79
57038;BME280;59942;49.304;8.256;2022-08-21T20:47:38;100071.34;;;25.31;34.92
57038;BME280;59942;49.304;8.256;2022-08-21T20:50:07;100095.22;;;25.31;35.07
57038;BME280;59942;49.304;8.256;2022-08-21T20:52:40;100101.00;;;25.27;35.67
57038;BME280;59942;49.304;8.256;2022-08-21T20:55:14;100081.66;;;24.93;36.11
57038;BME280;59942;49.304;8.256;2022-08-21T20:58:08;100096.06;;;24.91;36.48
57038;BME280;59942;49.304;8.256;2022-08-21T21:00:37;100091.19;;;24.45;37.41
57038;BME280;59942;49.304;8.256;2022-08-21T21:03:13;100099.91;;;24.21;38.18
57038;BME280;59942;49.304;8.256;2022-08-21T21:05:56;100106.06;;;24.38;37.60
57038;BME280;59942;49.304;8.256;2022-08-21T21:11:12;100104.09;;;24.40;37.51
57038;BME280;59942;49.304;8.256;2022-08-21T21:13:50;100099.47;;;24.50;37.65
57038;BME280;59942;49.304;8.256;2022-08-21T21:16:25;100097.31;;;24.45;37.26
57038;BME280;59942;49.304;8.256;2022-08-21T21:19:00;100067.50;;;24.43;36.89
57038;BME280;59942;49.304;8.256;2022-08-21T21:21:36;100095.25;;;24.66;36.77
57038;BME280;59942;49.304;8.256;2022-08-21T21:24:09;100101.03;;;24.77;36.35
57038;BME280;59942;49.304;8.256;2022-08-21T21:26:45;100094.72;;;24.78;36.41
57038;BME280;59942;49.304;8.256;2022-08-21T21:30:08;100106.13;;;24.62;36.93
57038;BME280;59942;49.304;8.256;2022-08-21T21:32:40;100099.16;;;24.53;36.83
57038;BME280;59942;49.304;8.256;2022-08-21T21:35:08;100094.50;;;24.47;37.12
57038;BME280;59942;49.304;8.256;2022-08-21T21:37:46;100099.59;;;24.32;37.23
57038;BME280;59942;49.304;8.256;2022-08-21T21:40:40;100108.75;;;24.46;37.16
57038;BME280;59942;49.304;8.256;2022-08-21T21:57:46;100116.88;;;24.02;38.60
57038;BME280;59942;49.304;8.256;2022-08-21T22:00:23;100100.59;;;23.88;38.76
57038;BME280;59942;49.304;8.256;2022-08-21T22:03:24;100117.19;;;23.99;38.84
57038;BME280;59942;49.304;8.256;2022-08-21T22:08:54;100112.88;;;23.98;39.48
57038;BME280;59942;49.304;8.256;2022-08-21T22:14:15;100115.69;;;22.63;44.37
57038;BME280;59942;49.304;8.256;2022-08-21T22:16:49;100129.38;;;22.03;44.33
57038;BME280;59942;49.304;8.256;2022-08-21T22:19:27;100123.16;;;21.94;44.58
57038;BME280;59942;49.304;8.256;2022-08-21T22:22:06;100124.31;;;22.65;42.77
57038;BME280;59942;49.304;8.256;2022-08-21T22:24:37;100119.56;;;22.87;42.39
57038;BME280;59942;49.304;8.256;2022-08-21T22:27:12;100123.19;;;23.04;42.04
57038;BME280;59942;49.304;8.256;2022-08-21T22:29:48;100122.13;;;23.15;41.45
57038;BME280;59942;49.304;8.256;2022-08-21T22:35:07;100120.22;;;23.25;41.38
57038;BME280;59942;49.304;8.256;2022-08-21T22:37:41;100103.91;;;22.40;43.11
57038;BME280;59942;49.304;8.256;2022-08-21T22:40:12;100133.38;;;22.07;44.48
57038;BME280;59942;49.304;8.256;2022-08-21T22:42:41;100112.63;;;22.40;43.24
57038;BME280;59942;49.304;8.256;2022-08-21T22:45:09;100136.47;;;22.76;42.50
57038;BME280;59942;49.304;8.256;2022-08-21T22:47:41;100105.06;;;22.73;42.22
57038;BME280;59942;49.304;8.256;2022-08-21T22:53:01;100135.34;;;22.97;42.00
57038;BME280;59942;49.304;8.256;2022-08-21T22:55:38;100137.44;;;22.93;41.90
57038;BME280;59942;49.304;8.256;2022-08-21T22:58:17;100143.81;;;22.82;42.99
57038;BME280;59942;49.304;8.256;2022-08-21T23:00:56;100145.66;;;22.54;42.60
57038;BME280;59942;49.304;8.256;2022-08-21T23:06:40;100145.66;;;22.26;43.28
57038;BME280;59942;49.304;8.256;2022-08-21T23:11:59;100140.63;;;22.33;42.96
57038;BME280;59942;49.304;8.256;2022-08-21T23:14:47;100145.19;;;22.41;42.56
57038;BME280;59942;49.304;8.256;2022-08-21T23:17:51;100140.34;;;22.36;42.67
57038;BME280;59942;49.304;8.256;2022-08-21T23:20:34;100145.34;;;22.39;42.53
57038;BME280;59942;49.304;8.256;2022-08-21T23:23:21;100146.31;;;22.28;43.07
57038;BME280;59942;49.304;8.256;2022-08-21T23:25:52;100147.97;;;21.44;45.51
57038;BME280;59942;49.304;8.256;2022-08-21T23:29:06;100144.41;;;21.06;46.11
57038;BME280;59942;49.304;8.256;2022-08-21T23:31:48;100155.94;;;21.25;45.60
57038;BME280;59942;49.304;8.256;2022-08-21T23:37:41;100151.16;;;21.67;44.52
57038;BME280;59942;49.304;8.256;2022-08-21T23:40:49;100157.34;;;21.86;44.34
57038;BME280;59942;49.304;8.256;2022-08-21T23:54:33;100159.16;;;21.85;44.38
